Newburgh, Indiana
Current Conditions -  °F | °C
As of 12:54 AM on Wednesday 22 Oct 2014 (Local Time) from KEVV Reporting Station
Clear Clear  
Wind Chill:   Ceiling: Unl
Heat Index:   Visibility: 10mi
Dew Point:   Wind: 6mph
Humidity: 77%   Direction: 20°NNE
Pressure: 30.2"   Gusts: NA
Location:  37.95°N, 87.4°W
Report Text: KEVV 220554Z AUTO 02005KT 10SM CLR 09/05 A3020 RMK AO2 SLP225 T00890050 10122 20083 401830072 50004
Loading
Personal Weather Stations






























Interactive Weather Map
Tropical Storm Tracking
New forecast layout! Learn more

10-Day Weather Forecast

Advertisements
Track Severe Weather on mobile